Benedict, Kansas
Current Conditions -  °F | °C
As of 6:52 AM on Monday 20 Oct 2014 (Local Time) from KCNU Reporting Station
Overcast Overcast  
Wind Chill: 58°   Ceiling: 4700
Heat Index: 58°   Visibility: 10mi
Dew Point: 54°   Wind: 6mph
Humidity: 87%   Direction: 200°SSW
Pressure: 30.03"   Gusts: NA
Location:  37.63°N, 95.75°W
Report Text: KCNU 201152Z AUTO 20005KT 10SM BKN047 OVC055 14/12 A3003 RMK AO2 SLP166 T01440122 10156 20139 53005
Loading
Personal Weather Stations






























Interactive Weather Map
Tropical Storm Tracking
New forecast layout! Learn more

10-Day Weather Forecast

Advertisements
Track Severe Weather on mobile